Time;durP1;ratioP1;P1;durP2;ratioP2;P2;SDS_P1;SDS_P2;PMS_P1;PMS_P2;Temp;Humidity;BMP_temperature;BMP_pressure;BME280_temperature;BME280_humidity;BME280_pressure;Samples;Min_cycle;Max_cycle;Signal;HPM_P1;HPM_P2
2024/02/16 00:00:11;;;;;;;4.53;1.48;;;;;;;8.41;100.00;99987.03;5081514;28;20038;-74
2024/02/16 00:02:37;;;;;;;3.95;1.02;;;;;;;8.41;100.00;99985.19;5099207;28;20460;-74
2024/02/16 00:05:05;;;;;;;2.92;1.60;;;;;;;8.43;100.00;99985.84;5098885;28;20499;-74
2024/02/16 00:07:31;;;;;;;10.55;1.90;;;;;;;8.42;100.00;99988.72;5115203;28;20035;-74
2024/02/16 00:09:56;;;;;;;1.20;1.10;;;;;;;8.48;100.00;99993.34;5098038;28;20043;-74
2024/02/16 00:12:23;;;;;;;5.63;1.10;;;;;;;8.48;100.00;99996.84;5098253;28;20384;-74
2024/02/16 00:14:48;;;;;;;0.50;0.50;;;;;;;8.50;100.00;99994.84;5098006;28;20039;-74
2024/02/16 00:17:14;;;;;;;1.02;0.80;;;;;;;8.52;100.00;99998.16;5115522;28;20374;-74
2024/02/16 00:19:40;;;;;;;4.97;1.10;;;;;;;8.52;100.00;100000.00;5097975;28;20088;-74
2024/02/16 00:22:09;;;;;;;3.28;0.73;;;;;;;8.54;100.00;100003.31;5081277;28;20036;-74
2024/02/16 00:24:36;;;;;;;0.45;0.45;;;;;;;8.53;100.00;100002.50;5098318;28;20036;-74
2024/02/16 00:27:05;;;;;;;1.58;0.73;;;;;;;8.56;100.00;100006.66;5097965;28;20540;-74
2024/02/16 00:29:31;;;;;;;0.57;0.57;;;;;;;8.55;100.00;100005.84;5098203;28;20027;-74
2024/02/16 00:31:59;;;;;;;9.43;1.05;;;;;;;8.55;100.00;100010.38;5097951;28;20067;-75
2024/02/16 00:34:25;;;;;;;7.63;0.90;;;;;;;8.54;100.00;100012.19;5097758;28;20039;-74
2024/02/16 00:36:51;;;;;;;0.60;0.60;;;;;;;8.54;100.00;100020.22;5098094;28;20085;-74
2024/02/16 00:39:18;;;;;;;3.22;1.05;;;;;;;8.52;100.00;100010.72;5097276;28;20093;-74
2024/02/16 00:41:46;;;;;;;3.50;1.85;;;;;;;8.52;100.00;100016.06;5096960;28;20040;-74
2024/02/16 00:44:11;;;;;;;3.38;0.90;;;;;;;8.50;100.00;100023.47;5097861;28;20463;-74
2024/02/16 00:46:37;;;;;;;1.08;0.82;;;;;;;8.51;100.00;100022.44;5080868;28;20046;-74
2024/02/16 00:49:03;;;;;;;4.70;1.48;;;;;;;8.51;100.00;100015.25;5097374;28;20387;-74
2024/02/16 00:51:29;;;;;;;1.42;0.63;;;;;;;8.51;100.00;100020.59;5097333;28;20031;-74
2024/02/16 00:53:55;;;;;;;1.02;1.02;;;;;;;8.54;100.00;100014.03;5114282;28;20031;-74
2024/02/16 00:56:25;;;;;;;7.43;0.85;;;;;;;8.55;100.00;100024.59;5114115;28;20033;-75
2024/02/16 00:58:51;;;;;;;0.82;0.70;;;;;;;8.57;100.00;100029.75;5097524;28;20044;-74
2024/02/16 01:01:16;;;;;;;0.43;0.43;;;;;;;8.56;100.00;100022.75;5080522;28;20080;-74
2024/02/16 01:03:42;;;;;;;0.63;0.63;;;;;;;8.57;100.00;100025.25;5096988;28;20031;-74
2024/02/16 01:06:11;;;;;;;1.05;0.90;;;;;;;8.59;100.00;100027.75;5115235;28;20038;-74
2024/02/16 01:08:36;;;;;;;0.50;0.50;;;;;;;8.58;100.00;100026.09;5097999;28;20042;-74
2024/02/16 01:11:02;;;;;;;2.17;0.73;;;;;;;8.61;100.00;100024.88;5096873;28;20036;-74
2024/02/16 01:13:28;;;;;;;1.75;1.00;;;;;;;8.60;100.00;100034.78;5097109;28;20028;-74
2024/02/16 01:15:54;;;;;;;0.60;0.60;;;;;;;8.60;100.00;100024.06;5114069;28;20463;-74
2024/02/16 01:18:20;;;;;;;0.98;0.70;;;;;;;8.61;100.00;100031.06;5080070;28;20404;-74
2024/02/16 01:20:45;;;;;;;0.40;0.40;;;;;;;8.62;100.00;100040.78;5113762;28;20035;-74
2024/02/16 01:23:11;;;;;;;0.40;0.40;;;;;;;8.62;100.00;100039.94;5079985;28;20026;-74
2024/02/16 01:25:37;;;;;;;2.17;0.68;;;;;;;8.61;100.00;100036.44;5096706;28;20391;-74
2024/02/16 01:28:03;;;;;;;2.15;0.63;;;;;;;8.63;100.00;100033.59;5079932;28;20059;-74
2024/02/16 01:30:29;;;;;;;1.08;0.40;;;;;;;8.63;100.00;100044.31;5079761;28;20039;-74
2024/02/16 01:32:54;;;;;;;0.68;0.60;;;;;;;8.62;100.00;100039.94;5079802;28;20030;-74
2024/02/16 01:35:20;;;;;;;0.40;0.40;;;;;;;8.63;100.00;100045.13;5096732;28;20361;-74
2024/02/16 01:37:46;;;;;;;0.68;0.68;;;;;;;8.65;100.00;100053.81;5096625;28;20040;-74
2024/02/16 01:40:14;;;;;;;2.40;0.75;;;;;;;8.64;100.00;100045.97;5113715;28;20050;-74
2024/02/16 01:42:41;;;;;;;2.90;0.75;;;;;;;8.65;100.00;100047.63;5079833;28;20027;-74
2024/02/16 01:45:09;;;;;;;0.52;0.50;;;;;;;8.67;100.00;100040.22;5096612;28;20100;-74
2024/02/16 01:47:36;;;;;;;7.35;0.95;;;;;;;8.66;100.00;100044.75;5096578;28;20534;-74
2024/02/16 01:50:02;;;;;;;1.10;0.60;;;;;;;8.67;100.00;100056.31;5113119;28;20035;-74
2024/02/16 01:52:30;;;;;;;2.95;0.80;;;;;;;8.67;100.00;100045.59;5079752;28;20031;-74
2024/02/16 01:54:57;;;;;;;0.90;0.70;;;;;;;8.67;100.00;100050.94;5095816;28;20039;-74
2024/02/16 01:57:23;;;;;;;0.50;0.50;;;;;;;8.66;100.00;100055.50;5096181;28;20027;-74
2024/02/16 01:59:50;;;;;;;0.85;0.82;;;;;;;8.65;100.00;100059.16;5096066;28;20020;-74
2024/02/16 02:02:15;;;;;;;0.40;0.40;;;;;;;8.67;100.00;100059.81;5096325;28;20031;-74
2024/02/16 02:04:41;;;;;;;1.42;1.20;;;;;;;8.68;100.00;100056.16;5079275;28;20077;-74
2024/02/16 02:07:14;;;;;;;1.70;0.60;;;;;;;8.68;100.00;100053.47;5062667;28;20491;-74
2024/02/16 02:09:40;;;;;;;1.35;0.68;;;;;;;8.68;100.00;100056.16;5095846;28;20031;-74
2024/02/16 02:12:05;;;;;;;3.63;0.80;;;;;;;8.70;100.00;100064.81;5079825;28;20023;-74
2024/02/16 02:14:31;;;;;;;4.75;0.98;;;;;;;8.70;100.00;100064.00;5079182;28;20372;-74
2024/02/16 02:16:57;;;;;;;0.40;0.40;;;;;;;8.71;100.00;100071.88;5080267;28;20519;-74
2024/02/16 02:19:22;;;;;;;0.57;0.57;;;;;;;8.71;100.00;100069.19;5079079;28;20042;-74
2024/02/16 02:21:48;;;;;;;0.30;0.30;;;;;;;8.72;100.00;100070.00;5095766;28;20539;-74
2024/02/16 02:24:14;;;;;;;0.75;0.60;;;;;;;8.71;100.00;100079.91;5112882;28;20556;-74
2024/02/16 02:26:39;;;;;;;0.98;0.47;;;;;;;8.71;100.00;100076.41;5079072;28;20032;-74
2024/02/16 02:29:05;;;;;;;4.32;1.02;;;;;;;8.71;100.00;100085.25;5095551;28;20024;-74
2024/02/16 02:31:31;;;;;;;0.50;0.43;;;;;;;8.71;100.00;100087.94;5078984;28;20385;-74
2024/02/16 02:33:56;;;;;;;0.88;0.68;;;;;;;8.70;100.00;100086.25;5112593;28;20048;-74
2024/02/16 02:36:22;;;;;;;0.40;0.40;;;;;;;8.71;100.00;100085.25;5095516;28;20055;-74
2024/02/16 02:38:48;;;;;;;1.88;0.60;;;;;;;8.71;100.00;100095.16;5095825;28;20043;-74
2024/02/16 02:41:16;;;;;;;0.85;0.63;;;;;;;8.72;100.00;100094.13;5096120;28;20036;-74
2024/02/16 02:43:42;;;;;;;0.30;0.30;;;;;;;8.72;100.00;100094.97;5113471;28;20058;-75
2024/02/16 02:46:07;;;;;;;1.05;0.40;;;;;;;8.72;100.00;100097.63;5078903;28;20551;-74
2024/02/16 02:48:33;;;;;;;0.57;0.57;;;;;;;8.70;100.00;100099.66;5095684;28;20135;-74
2024/02/16 02:50:59;;;;;;;3.75;1.00;;;;;;;8.72;100.00;100103.00;5078840;28;20028;-74
2024/02/16 02:53:28;;;;;;;1.00;0.73;;;;;;;8.70;100.00;100102.34;5095624;28;20152;-74
2024/02/16 02:55:54;;;;;;;0.40;0.40;;;;;;;8.71;100.00;100104.03;5096009;28;20030;-74
2024/02/16 02:58:19;;;;;;;1.17;0.50;;;;;;;8.71;100.00;100105.88;5095506;28;20036;-75
2024/02/16 03:00:45;;;;;;;0.55;0.55;;;;;;;8.72;100.00;100112.91;5113504;28;20032;-74
2024/02/16 03:03:11;;;;;;;1.20;0.60;;;;;;;8.72;100.00;100112.91;5095206;28;20043;-74
2024/02/16 03:05:37;;;;;;;0.40;0.40;;;;;;;8.72;100.00;100105.69;5097966;28;20031;-74
2024/02/16 03:08:04;;;;;;;1.30;0.75;;;;;;;8.70;100.00;100110.38;5116508;28;20084;-75
2024/02/16 03:10:34;;;;;;;0.50;0.50;;;;;;;8.72;100.00;100112.91;5099747;28;20031;-75
2024/02/16 03:13:01;;;;;;;2.10;0.60;;;;;;;8.69;100.00;100106.03;5116080;28;20459;-74
2024/02/16 03:15:29;;;;;;;0.70;0.70;;;;;;;8.68;100.00;100119.63;5100048;28;20088;-74
2024/02/16 03:17:55;;;;;;;0.40;0.40;;;;;;;8.67;100.00;100115.28;5099195;28;20028;-74
2024/02/16 03:20:21;;;;;;;5.47;0.63;;;;;;;8.67;100.00;100120.63;5099638;28;20387;-74
2024/02/16 03:22:48;;;;;;;0.93;0.50;;;;;;;8.66;100.00;100117.13;5116867;28;20348;-74
2024/02/16 03:25:13;;;;;;;0.40;0.40;;;;;;;8.66;100.00;100122.50;5099215;28;20023;-74
2024/02/16 03:27:41;;;;;;;4.22;0.63;;;;;;;8.66;100.00;100122.50;5099140;28;20031;-75
2024/02/16 03:30:07;;;;;;;1.42;0.60;;;;;;;8.65;100.00;100128.84;5099527;28;20034;-74
2024/02/16 03:32:33;;;;;;;0.65;0.40;;;;;;;8.65;100.00;100122.66;5082058;28;20550;-74
2024/02/16 03:34:59;;;;;;;0.50;0.50;;;;;;;8.64;100.00;100134.41;5082558;28;20145;-74
2024/02/16 03:37:25;;;;;;;0.40;0.40;;;;;;;8.65;100.00;100133.38;5098855;28;20391;-75
2024/02/16 03:39:51;;;;;;;0.47;0.47;;;;;;;8.65;100.00;100128.84;5082000;28;20038;-75
2024/02/16 03:42:19;;;;;;;1.70;0.60;;;;;;;8.65;100.00;100141.41;5115671;28;20089;-74
2024/02/16 03:44:45;;;;;;;2.75;0.70;;;;;;;8.65;100.00;100136.88;5099642;28;20031;-74
2024/02/16 03:47:11;;;;;;;2.83;0.60;;;;;;;8.65;100.00;100139.56;5115603;28;20050;-74
2024/02/16 03:49:37;;;;;;;5.10;0.70;;;;;;;8.63;100.00;100141.63;5098925;28;20085;-74
2024/02/16 03:52:03;;;;;;;0.65;0.50;;;;;;;8.61;100.00;100140.94;5065083;28;20110;-75
2024/02/16 03:54:29;;;;;;;0.57;0.57;;;;;;;8.63;100.00;100148.81;5098434;28;20106;-74
2024/02/16 03:56:55;;;;;;;2.33;0.65;;;;;;;8.63;100.00;100146.97;5099310;28;20027;-74
2024/02/16 03:59:21;;;;;;;2.05;0.77;;;;;;;8.65;100.00;100144.09;5098269;28;20494;-74
2024/02/16 04:01:46;;;;;;;2.22;1.13;;;;;;;8.65;100.00;100155.63;5098501;28;20027;-74
2024/02/16 04:04:13;;;;;;;1.85;0.50;;;;;;;8.66;100.00;100151.13;5098191;28;20054;-74
2024/02/16 04:06:39;;;;;;;0.50;0.50;;;;;;;8.65;100.00;100155.63;5098391;28;20099;-75
2024/02/16 04:09:08;;;;;;;0.63;0.50;;;;;;;8.66;100.00;100156.50;5081496;28;20467;-75
2024/02/16 04:11:37;;;;;;;0.70;0.70;;;;;;;8.67;100.00;100164.34;5115117;28;20023;-74
2024/02/16 04:14:03;;;;;;;0.85;0.40;;;;;;;8.67;100.00;100168.88;5081778;28;20479;-74
2024/02/16 04:16:29;;;;;;;2.10;0.50;;;;;;;8.66;100.00;100157.34;5081084;28;20061;-74
2024/02/16 04:18:55;;;;;;;1.27;0.68;;;;;;;8.66;100.00;100168.06;5081270;28;20130;-75
2024/02/16 04:21:21;;;;;;;1.40;0.60;;;;;;;8.67;100.00;100179.59;5080393;28;20396;-75
2024/02/16 04:23:58;;;;;;;0.40;0.40;;;;;;;8.67;100.00;100175.06;5114911;28;20054;-75
2024/02/16 04:26:44;;;;;;;;;;;;;;;8.66;100.00;100178.78;5076760;28;20036;-75
2024/02/16 04:29:10;;;;;;;0.40;0.40;;;;;;;8.63;100.00;100173.78;5097963;28;20256;-75
2024/02/16 04:31:36;;;;;;;0.50;0.50;;;;;;;8.64;100.00;100185.31;5081229;28;20364;-75
2024/02/16 04:34:01;;;;;;;0.50;0.50;;;;;;;8.59;100.00;100181.31;5097966;28;20027;-74
2024/02/16 04:36:27;;;;;;;0.55;0.50;;;;;;;8.62;100.00;100181.97;5097534;28;20048;-74
2024/02/16 04:38:53;;;;;;;0.40;0.40;;;;;;;8.61;100.00;100186.50;5097543;28;20023;-74
2024/02/16 04:41:21;;;;;;;2.17;0.70;;;;;;;8.62;100.00;100193.53;5080894;28;20405;-75
2024/02/16 04:43:47;;;;;;;0.50;0.50;;;;;;;8.64;100.00;100196.03;5114397;28;20027;-74
2024/02/16 04:46:16;;;;;;;1.02;1.02;;;;;;;8.63;100.00;100200.56;5098004;28;20039;-74
2024/02/16 04:48:42;;;;;;;0.60;0.60;;;;;;;8.63;100.00;100195.22;5114366;28;20453;-75
2024/02/16 04:51:08;;;;;;;0.68;0.50;;;;;;;8.65;100.00;100200.38;5097388;28;20044;-75
2024/02/16 04:53:33;;;;;;;1.20;0.57;;;;;;;8.62;100.00;100198.88;5114268;28;20027;-75
2024/02/16 04:55:59;;;;;;;0.73;0.73;;;;;;;8.61;100.00;100213.31;5097317;28;20031;-74
2024/02/16 04:58:25;;;;;;;0.40;0.40;;;;;;;8.62;100.00;100216.81;5080499;28;20031;-74
2024/02/16 05:00:51;;;;;;;0.40;0.40;;;;;;;8.62;100.00;100228.38;5114076;28;20030;-74
2024/02/16 05:03:18;;;;;;;0.77;0.60;;;;;;;8.62;100.00;100228.38;5114092;28;20028;-74
2024/02/16 05:05:43;;;;;;;0.52;0.52;;;;;;;8.61;100.00;100239.28;5097335;28;20038;-74
2024/02/16 05:08:10;;;;;;;3.08;0.60;;;;;;;8.60;100.00;100233.09;5114086;28;20031;-74
2024/02/16 05:10:35;;;;;;;0.50;0.50;;;;;;;8.59;100.00;100237.59;5096904;28;20073;-75
2024/02/16 05:13:01;;;;;;;0.60;0.60;;;;;;;8.59;100.00;100247.47;5113852;28;20038;-74
2024/02/16 05:15:27;;;;;;;2.38;0.68;;;;;;;8.60;100.00;100251.84;5096916;28;20027;-75
2024/02/16 05:17:53;;;;;;;0.57;0.50;;;;;;;8.59;100.00;100255.50;5113743;28;20436;-74
2024/02/16 05:20:19;;;;;;;0.50;0.50;;;;;;;8.59;100.00;100253.66;5079742;28;20035;-74
2024/02/16 05:22:46;;;;;;;1.25;0.45;;;;;;;8.59;100.00;100268.91;5080141;28;20463;-74
2024/02/16 05:25:12;;;;;;;3.70;1.00;;;;;;;8.59;100.00;100268.91;5113567;28;20474;-74
2024/02/16 05:27:38;;;;;;;0.73;0.52;;;;;;;8.59;100.00;100269.75;5080014;28;20106;-74
2024/02/16 05:30:07;;;;;;;1.13;0.60;;;;;;;8.55;100.00;100264.94;5097393;28;20111;-74
2024/02/16 05:32:39;;;;;;;2.72;0.98;;;;;;;8.57;100.00;100271.78;5113395;28;20483;-74
2024/02/16 05:35:16;;;;;;;1.45;0.75;;;;;;;8.58;100.00;100273.44;5097352;28;20034;-75
2024/02/16 05:37:58;;;;;;;1.55;0.50;;;;;;;8.58;100.00;100288.69;5111999;28;20108;-74
2024/02/16 05:40:30;;;;;;;0.60;0.60;;;;;;;8.57;100.00;100293.22;5079781;28;20118;-74
2024/02/16 05:43:00;;;;;;;0.68;0.60;;;;;;;8.55;100.00;100291.72;5113521;28;20035;-74
2024/02/16 05:45:26;;;;;;;0.90;0.40;;;;;;;8.56;100.00;100306.78;5113934;28;20532;-74
2024/02/16 05:47:52;;;;;;;0.65;0.60;;;;;;;8.54;100.00;100308.78;5096914;28;20036;-74
2024/02/16 05:50:20;;;;;;;0.50;0.50;;;;;;;8.54;100.00;100316.84;5096589;28;20031;-74
2024/02/16 05:52:46;;;;;;;0.50;0.50;;;;;;;8.52;100.00;100322.38;5096562;28;20040;-74
2024/02/16 05:55:13;;;;;;;2.70;0.50;;;;;;;8.50;100.00;100323.56;5096429;28;20121;-74
2024/02/16 05:57:39;;;;;;;0.50;0.50;;;;;;;8.51;100.00;100333.25;5113011;28;20035;-74
2024/02/16 06:00:07;;;;;;;2.05;0.68;;;;;;;8.51;100.00;100346.66;5096329;28;20020;-74
2024/02/16 06:02:33;;;;;;;1.58;1.48;;;;;;;8.50;100.00;100345.00;5096354;28;20112;-75
2024/02/16 06:05:00;;;;;;;5.18;1.73;;;;;;;8.49;100.00;100349.50;5096357;28;20063;-75
2024/02/16 06:07:26;;;;;;;0.73;0.50;;;;;;;8.49;100.00;100349.50;5095910;28;20153;-74
2024/02/16 06:09:54;;;;;;;0.95;0.70;;;;;;;8.48;100.00;100353.19;5079228;28;20106;-74
2024/02/16 06:12:20;;;;;;;2.28;1.08;;;;;;;8.46;100.00;100349.84;5112754;28;20035;-74
2024/02/16 06:14:48;;;;;;;0.63;0.60;;;;;;;8.45;100.00;100366.94;5113373;28;20055;-74
2024/02/16 06:17:14;;;;;;;7.55;0.90;;;;;;;8.44;100.00;100364.41;5096777;28;20084;-74
2024/02/16 06:19:41;;;;;;;0.40;0.40;;;;;;;8.42;100.00;100359.25;5113187;28;20031;-74
2024/02/16 06:22:08;;;;;;;0.43;0.43;;;;;;;8.40;100.00;100368.47;5079192;28;20080;-74
2024/02/16 06:24:34;;;;;;;3.85;0.60;;;;;;;8.33;100.00;100354.88;5112556;28;20476;-75
2024/02/16 06:26:59;;;;;;;1.02;0.60;;;;;;;8.36;100.00;100371.47;5096046;28;20028;-74
2024/02/16 06:29:25;;;;;;;0.65;0.65;;;;;;;8.34;100.00;100373.47;5112643;28;20053;-74
2024/02/16 06:31:51;;;;;;;1.25;0.63;;;;;;;8.33;100.00;100377.13;5112541;28;20024;-74
2024/02/16 06:34:18;;;;;;;3.55;0.73;;;;;;;8.32;100.00;100371.97;5095538;28;20035;-74
2024/02/16 06:36:43;;;;;;;2.92;0.57;;;;;;;8.32;100.00;100378.16;5095675;28;20027;-74
2024/02/16 06:39:10;;;;;;;0.55;0.55;;;;;;;8.31;100.00;100381.03;5097157;28;20420;-74
2024/02/16 06:41:37;;;;;;;0.60;0.50;;;;;;;8.26;100.00;100378.00;5119264;28;20035;-74
2024/02/16 06:44:04;;;;;;;0.70;0.60;;;;;;;8.30;100.00;100393.56;5119920;28;20038;-74
2024/02/16 06:46:30;;;;;;;0.55;0.55;;;;;;;8.30;100.00;100398.09;5119508;28;20039;-75
2024/02/16 06:48:58;;;;;;;3.83;0.70;;;;;;;8.29;100.00;100397.25;5102489;28;20027;-74
2024/02/16 06:51:26;;;;;;;2.28;1.13;;;;;;;8.29;100.00;100405.28;5102548;28;20023;-74
2024/02/16 06:53:52;;;;;;;2.15;0.75;;;;;;;8.29;100.00;100409.81;5102478;28;20044;-74
2024/02/16 06:56:18;;;;;;;0.65;0.63;;;;;;;8.28;100.00;100413.47;5102739;28;20398;-74
2024/02/16 06:58:47;;;;;;;0.40;0.40;;;;;;;8.26;100.00;100416.34;5102190;28;20031;-74
2024/02/16 07:01:14;;;;;;;0.93;0.52;;;;;;;8.26;100.00;100418.19;5102915;28;20035;-74
2024/02/16 07:03:40;;;;;;;1.75;0.60;;;;;;;8.25;100.00;100422.69;5102358;28;20032;-74
2024/02/16 07:06:09;;;;;;;1.08;0.63;;;;;;;8.21;100.00;100426.72;5119712;28;20038;-74
2024/02/16 07:08:37;;;;;;;1.88;0.60;;;;;;;8.26;100.00;100434.25;5103027;28;20027;-74
2024/02/16 07:11:03;;;;;;;0.52;0.50;;;;;;;8.23;100.00;100437.25;5119010;28;20037;-74
2024/02/16 07:13:29;;;;;;;2.50;0.73;;;;;;;8.24;100.00;100453.16;5119335;28;20043;-74
2024/02/16 07:15:54;;;;;;;0.50;0.50;;;;;;;8.24;100.00;100446.97;5101917;28;20403;-74
2024/02/16 07:18:21;;;;;;;0.40;0.40;;;;;;;8.23;100.00;100454.19;5085290;28;20038;-74
2024/02/16 07:20:47;;;;;;;11.55;1.10;;;;;;;8.24;100.00;100460.38;5119988;28;20402;-74
2024/02/16 07:23:15;;;;;;;3.03;0.70;;;;;;;8.25;100.00;100467.41;5102556;28;20035;-75
2024/02/16 07:25:42;;;;;;;3.42;0.82;;;;;;;8.25;100.00;100465.53;5119271;28;20027;-74
2024/02/16 07:28:08;;;;;;;0.43;0.43;;;;;;;8.26;100.00;100477.13;5102404;28;20043;-74
2024/02/16 07:30:36;;;;;;;5.78;0.60;;;;;;;8.24;100.00;100479.94;5101778;28;20085;-74
2024/02/16 07:33:02;;;;;;;1.58;0.88;;;;;;;8.24;100.00;100487.16;5118835;28;20047;-74
2024/02/16 07:35:28;;;;;;;7.35;0.85;;;;;;;8.23;100.00;100488.16;5101837;28;20216;-74
2024/02/16 07:37:54;;;;;;;1.88;0.70;;;;;;;8.21;100.00;100492.84;5101783;28;20493;-74
2024/02/16 07:40:20;;;;;;;2.15;0.70;;;;;;;8.18;100.00;100488.66;5101856;28;20523;-74
2024/02/16 07:42:46;;;;;;;0.60;0.60;;;;;;;8.18;100.00;100510.09;5102313;28;20149;-74
2024/02/16 07:45:12;;;;;;;0.98;0.50;;;;;;;8.17;100.00;100505.72;5084986;28;20459;-74
2024/02/16 07:47:41;;;;;;;2.25;0.70;;;;;;;8.17;100.00;100512.94;5101575;28;20035;-74
2024/02/16 07:50:06;;;;;;;6.43;1.08;;;;;;;8.18;100.00;100515.44;5101561;28;20032;-75
2024/02/16 07:52:32;;;;;;;1.67;0.82;;;;;;;8.17;100.00;100521.78;5081816;28;20031;-74
2024/02/16 07:54:58;;;;;;;0.98;0.60;;;;;;;8.21;100.00;100525.00;5098799;28;20066;-74
2024/02/16 07:57:24;;;;;;;7.30;1.65;;;;;;;8.22;100.00;100532.00;5115367;28;20035;-74
2024/02/16 07:59:50;;;;;;;1.30;0.90;;;;;;;8.21;100.00;100536.53;5098351;28;20024;-74
2024/02/16 08:02:17;;;;;;;5.97;0.90;;;;;;;8.23;100.00;100534.53;5081442;28;20376;-74
2024/02/16 08:04:47;;;;;;;2.85;1.02;;;;;;;8.26;100.00;100549.44;5098804;28;20088;-74
2024/02/16 08:07:13;;;;;;;5.63;0.75;;;;;;;8.27;100.00;100561.81;5081592;28;20051;-74
2024/02/16 08:09:39;;;;;;;5.32;1.10;;;;;;;8.30;100.00;100561.47;5098152;28;20067;-74
2024/02/16 08:12:06;;;;;;;0.73;0.70;;;;;;;8.32;100.00;100573.72;5098915;28;20035;-74
2024/02/16 08:14:33;;;;;;;4.10;1.25;;;;;;;8.35;100.00;100573.38;5081927;28;20073;-74
2024/02/16 08:16:59;;;;;;;2.63;0.77;;;;;;;8.36;100.00;100569.72;5114863;28;20031;-74
2024/02/16 08:19:32;;;;;;;7.40;0.90;;;;;;;8.42;100.00;100580.81;5098270;28;20552;-74
2024/02/16 08:21:57;;;;;;;13.07;1.33;;;;;;;8.42;100.00;100583.47;5117294;28;20371;-75
2024/02/16 08:24:23;;;;;;;0.65;0.65;;;;;;;8.45;100.00;100591.19;5097850;28;20031;-74
2024/02/16 08:26:48;;;;;;;5.97;0.90;;;;;;;8.48;100.00;100604.25;5115017;28;20039;-74
2024/02/16 08:29:14;;;;;;;2.47;1.02;;;;;;;8.50;100.00;100596.88;5081112;28;20468;-74
2024/02/16 08:31:40;;;;;;;4.68;1.08;;;;;;;8.53;100.00;100601.91;5097807;28;20114;-74
2024/02/16 08:34:07;;;;;;;2.17;0.90;;;;;;;8.54;100.00;100607.09;5097613;28;20034;-74
2024/02/16 08:36:33;;;;;;;3.47;1.13;;;;;;;8.55;100.00;100611.47;5114592;28;20028;-74
2024/02/16 08:38:59;;;;;;;2.53;0.70;;;;;;;8.55;100.00;100611.47;5114557;28;20028;-74
2024/02/16 08:41:25;;;;;;;1.10;0.80;;;;;;;8.56;100.00;100620.31;5097553;28;20038;-74
2024/02/16 08:43:51;;;;;;;5.88;1.10;;;;;;;8.56;100.00;100623.00;5114341;28;20433;-74
2024/02/16 08:46:16;;;;;;;2.90;1.08;;;;;;;8.61;100.00;100627.88;5080684;28;20105;-74
2024/02/16 08:48:45;;;;;;;4.18;1.20;;;;;;;8.63;100.00;100629.38;5080687;28;20028;-74
2024/02/16 08:51:13;;;;;;;2.95;0.80;;;;;;;8.67;100.00;100630.72;5114541;28;20052;-74
2024/02/16 08:53:39;;;;;;;3.85;0.85;;;;;;;8.71;100.00;100634.75;5080765;28;20080;-74
2024/02/16 08:56:10;;;;;;;5.13;1.05;;;;;;;8.78;100.00;100638.41;5080539;28;20138;-74
2024/02/16 08:58:36;;;;;;;2.35;0.70;;;;;;;8.85;100.00;100632.41;5097834;28;20030;-74
2024/02/16 09:01:01;;;;;;;10.77;1.13;;;;;;;8.91;100.00;100643.28;5080451;28;20027;-75
2024/02/16 09:03:27;;;;;;;1.70;1.05;;;;;;;8.97;100.00;100649.81;5096477;28;20042;-74
2024/02/16 09:05:53;;;;;;;1.50;0.60;;;;;;;9.01;100.00;100653.84;5096921;28;20386;-74
2024/02/16 09:08:18;;;;;;;5.03;1.02;;;;;;;9.01;100.00;100652.00;5097062;28;20051;-74
2024/02/16 09:10:44;;;;;;;3.10;1.08;;;;;;;9.04;100.00;100653.50;5114113;28;20534;-74
2024/02/16 09:13:09;;;;;;;2.80;0.98;;;;;;;9.09;100.00;100659.22;5080116;28;20031;-74
2024/02/16 09:15:36;;;;;;;5.18;1.10;;;;;;;9.14;100.00;100667.59;5096893;28;20433;-75
2024/02/16 09:18:03;;;;;;;6.18;1.17;;;;;;;9.15;100.00;100668.44;5113714;28;20479;-76
2024/02/16 09:20:28;;;;;;;6.72;1.20;;;;;;;9.19;100.00;100672.47;5097486;28;20028;-75
2024/02/16 09:22:54;;;;;;;1.83;0.95;;;;;;;9.19;100.00;100673.28;5096703;28;20034;-75
2024/02/16 09:25:21;;;;;;;3.90;1.48;;;;;;;9.19;100.00;100675.13;5080002;28;20023;-75
2024/02/16 09:27:47;;;;;;;4.30;1.60;;;;;;;9.21;100.00;100678.50;5113836;28;20032;-75
2024/02/16 09:30:13;;;;;;;4.97;1.48;;;;;;;9.23;100.00;100682.69;5079998;28;20034;-75
2024/02/16 09:32:42;;;;;;;5.43;1.40;;;;;;;9.29;100.00;100691.03;5096469;28;20407;-76
2024/02/16 09:35:08;;;;;;;6.90;1.85;;;;;;;9.39;100.00;100692.56;5079886;28;20028;-75
2024/02/16 09:37:37;;;;;;;3.30;1.15;;;;;;;9.51;100.00;100698.41;5113453;28;20024;-75
2024/02/16 09:40:05;;;;;;;10.00;1.88;;;;;;;9.72;100.00;100705.09;5096829;28;20032;-75
2024/02/16 09:42:30;;;;;;;7.85;1.60;;;;;;;9.83;100.00;100699.34;5096938;28;20027;-75
2024/02/16 09:44:56;;;;;;;3.45;1.40;;;;;;;9.86;100.00;100710.56;5079704;28;20024;-75
2024/02/16 09:47:22;;;;;;;10.27;2.25;;;;;;;9.89;100.00;100709.38;5079707;28;20132;-76
2024/02/16 09:49:48;;;;;;;8.35;1.40;;;;;;;9.93;100.00;100705.38;5113518;28;20107;-75
2024/02/16 09:52:14;;;;;;;4.55;1.27;;;;;;;10.03;100.00;100718.56;5096824;28;20102;-75
2024/02/16 09:54:40;;;;;;;8.45;1.67;;;;;;;10.02;100.00;100717.75;5113107;28;20035;-75
2024/02/16 09:57:06;;;;;;;12.68;1.40;;;;;;;10.00;100.00;100726.97;5096581;28;20364;-75
2024/02/16 09:59:32;;;;;;;4.30;1.70;;;;;;;10.04;100.00;100723.78;5080260;28;20034;-75
2024/02/16 10:02:07;;;;;;;9.13;2.10;;;;;;;10.24;100.00;100731.44;5113392;28;20028;-75
2024/02/16 10:04:32;;;;;;;4.97;1.52;;;;;;;10.44;100.00;100730.03;5063462;28;20028;-75
2024/02/16 10:06:58;;;;;;;5.85;2.10;;;;;;;10.67;100.00;100742.69;5096031;28;20046;-76
2024/02/16 10:09:32;;;;;;;9.43;2.10;;;;;;;10.89;100.00;100741.88;5096160;28;20088;-75
2024/02/16 10:11:58;;;;;;;3.83;1.30;;;;;;;10.97;100.00;100749.06;5113003;28;20540;-75
2024/02/16 10:14:25;;;;;;;6.07;1.95;;;;;;;11.02;100.00;100751.22;5112036;28;20031;-76
2024/02/16 10:17:06;;;;;;;7.00;1.77;;;;;;;10.85;100.00;100751.31;5113587;28;20031;-75
2024/02/16 10:19:36;;;;;;;10.68;2.50;;;;;;;10.90;100.00;100765.09;5113217;28;20400;-75
2024/02/16 10:22:07;;;;;;;6.63;2.35;;;;;;;10.91;100.00;100764.06;5097144;28;20134;-76
2024/02/16 10:24:34;;;;;;;8.23;2.10;;;;;;;10.99;100.00;100773.94;5113548;28;20028;-76
2024/02/16 10:26:59;;;;;;;7.78;2.22;;;;;;;11.24;100.00;100771.88;5079030;28;20521;-75
2024/02/16 10:29:27;;;;;;;6.78;2.47;;;;;;;11.41;100.00;100772.63;5112809;28;20024;-76
2024/02/16 10:31:52;;;;;;;6.82;1.60;;;;;;;11.41;100.00;100783.38;5079007;28;20114;-76
2024/02/16 10:34:19;;;;;;;12.77;2.60;;;;;;;11.32;100.00;100787.16;5112849;28;20122;-75
2024/02/16 10:36:45;;;;;;;8.75;2.20;;;;;;;11.28;100.00;100784.00;5078905;28;20467;-74
2024/02/16 10:39:11;;;;;;;10.93;2.15;;;;;;;11.30;100.00;100786.47;5095470;28;20035;-74
2024/02/16 10:41:39;;;;;;;7.78;1.65;;;;;;;11.29;100.00;100792.91;5095760;28;20033;-74
2024/02/16 10:44:05;;;;;;;9.98;1.90;;;;;;;11.32;100.00;100789.84;5112754;28;20032;-74
2024/02/16 10:46:31;;;;;;;13.23;2.10;;;;;;;11.48;100.00;100800.47;5096432;28;20115;-74
2024/02/16 10:48:57;;;;;;;8.60;1.30;;;;;;;11.74;100.00;100800.09;5095832;28;20024;-74
2024/02/16 10:51:39;;;;;;;7.65;1.33;;;;;;;12.05;100.00;100796.47;5095663;28;20100;-74
2024/02/16 10:54:05;;;;;;;11.20;1.83;;;;;;;12.39;100.00;100798.59;5095412;28;20027;-74
2024/02/16 10:56:39;;;;;;;4.75;1.63;;;;;;;12.64;100.00;100801.00;5078866;28;20031;-74
2024/02/16 10:59:08;;;;;;;10.10;1.60;;;;;;;13.41;100.00;100805.81;5112277;28;20463;-74
2024/02/16 11:01:41;;;;;;;0.65;0.60;;;;;;;13.27;100.00;100812.13;5095764;28;20034;-74
2024/02/16 11:04:09;;;;;;;15.43;1.98;;;;;;;13.07;100.00;100818.13;5095955;28;20040;-74
2024/02/16 11:06:59;;;;;;;5.50;1.38;;;;;;;13.60;100.00;100828.63;5112283;28;20494;-74
2024/02/16 11:09:26;;;;;;;8.18;1.73;;;;;;;13.47;100.00;100820.41;5112391;28;20028;-74
2024/02/16 11:11:58;;;;;;;7.90;2.92;;;;;;;13.16;100.00;100833.16;5095280;28;20028;-74
2024/02/16 11:14:24;;;;;;;6.13;1.48;;;;;;;13.08;100.00;100835.16;5095603;28;20080;-74
2024/02/16 11:16:54;;;;;;;8.02;1.20;;;;;;;12.73;100.00;100837.66;5112517;28;20088;-74
2024/02/16 11:19:22;;;;;;;5.03;1.45;;;;;;;12.53;100.00;100843.59;5095425;28;20122;-74
2024/02/16 11:21:58;;;;;;;5.32;1.60;;;;;;;12.52;100.00;100838.41;5095917;28;20028;-74